TXKF/BDA METAR and TAF weather

Enter ICAO airport designator
Station Type Date Time Source
TXKF METAR 2019/08/19 07:55 UTC NOAA

TXKF 190755Z 18005KT 9999 FEW020 27/23 Q1021


Station Type Date Time Source
TXKF Decoded METAR 2019/08/19 07:55 UTC NOAA

Station name not available
Aug 19, 2019 - 03:55 AM EDT / 2019.08.19 0755 UTC
Wind: from the S (180 degrees) at 6 MPH (5 KT):0
Visibility: greater than 7 mile(s):0
Sky conditions: mostly clear
Temperature: 80 F (27 C)
Dew Point: 73 F (23 C)
Relative Humidity: 78%
Pressure (altimeter): 30.15 in. Hg (1021 hPa)
ob: TXKF 190755Z 18005KT 9999 FEW020 27/23 Q1021
cycle: 8

Station Type Date Time Source
TXKF TAF 2019/08/19 06:45 UTC NOAA

TAF TXKF 190535Z 1906/2006 VRB05KT 9999 SCT020

Example: see airport list